St Paul Downtown Holman Field
KSTP : now visible

Airfield :











YOU CAN JOIN US ON...

 
LOGIN :

Register | Disclaimer

   EN    FR    IT 

 









Legend :    VFR   Marginal VFR   IFR   Intensive IFR   Very Intensive IFR
Visi :
Ceiling :
>= 8 km
>= 3000ft
5 to 8 km
1000 to 3000 ft
1500m to 5 km
500 to 1000 ft
800 to 1500m
200 to 500 ft
< 800m
< 200 ft
Symbols :   Thunderstorms  Fog  Heavy snow  Heavy precipitations  Wind > 20 kt






- Airport Elevation : 705 ft
- IATA code : STP


KSTP - St Paul Downtown Holman Field

CURRENT METAR :
  • 160653Z AUTO 16003KT 10SM OVC018 M09/M13 A3011 RMK AO2 SLP207 T10941133 $

EXPIRED METARs :
  • 160553Z AUTO 16003KT 10SM BKN023 OVC037 M09/M14 A3011 RMK AO2 SLP208 T10941139 11094 21122 410941183 53004 $
  • 160453Z AUTO 15004KT 10SM SCT033 OVC055 M10/M15 A3010 RMK AO2 SLP208 T11001150 $

Expired Forecast.



MET'MAP, your aeronautical weather chart ! - Copyright ORBIFLY December 2007 - Disclaimer

ORBIFLY MET'MAP TEAM :

Programming & Development : Alexandra Zaïnal
Concept & original design : Baudouin d'Aumeries
Assistance for programming : Marc-Olivier Méhu
Technical & hardware support : Manuel Goepfert

Contact : metmap@orbifly.com




SOURCES & CREDITS :

   NOAA       Earth
Advisory